sensor_id;sensor_type;location;lat;lon;timestamp;P1;durP1;ratioP1;P2;durP2;ratioP2
37303;SDS011;23188;51.188;16.374;2022-10-17T00:01:56;31.42;;;22.98;;
37303;SDS011;23188;51.188;16.374;2022-10-17T00:05:57;32.03;;;24.00;;
37303;SDS011;23188;51.188;16.374;2022-10-17T00:09:58;30.75;;;23.42;;
37303;SDS011;23188;51.188;16.374;2022-10-17T00:14:00;30.35;;;23.65;;
37303;SDS011;23188;51.188;16.374;2022-10-17T00:18:02;30.90;;;22.82;;
37303;SDS011;23188;51.188;16.374;2022-10-17T00:22:04;41.33;;;23.45;;
37303;SDS011;23188;51.188;16.374;2022-10-17T00:26:05;32.83;;;26.87;;
37303;SDS011;23188;51.188;16.374;2022-10-17T00:30:07;29.45;;;24.27;;
37303;SDS011;23188;51.188;16.374;2022-10-17T00:38:13;28.98;;;23.67;;
37303;SDS011;23188;51.188;16.374;2022-10-17T00:42:14;33.45;;;26.07;;
37303;SDS011;23188;51.188;16.374;2022-10-17T00:46:15;29.40;;;22.98;;
37303;SDS011;23188;51.188;16.374;2022-10-17T00:50:17;29.07;;;22.48;;
37303;SDS011;23188;51.188;16.374;2022-10-17T00:54:20;36.98;;;26.82;;
37303;SDS011;23188;51.188;16.374;2022-10-17T00:58:26;37.05;;;27.37;;
37303;SDS011;23188;51.188;16.374;2022-10-17T01:02:27;33.88;;;27.07;;
37303;SDS011;23188;51.188;16.374;2022-10-17T01:06:28;36.10;;;24.87;;
37303;SDS011;23188;51.188;16.374;2022-10-17T01:10:34;33.58;;;26.87;;
37303;SDS011;23188;51.188;16.374;2022-10-17T01:37:26;31.40;;;24.57;;
37303;SDS011;23188;51.188;16.374;2022-10-17T01:41:47;31.17;;;26.00;;
37303;SDS011;23188;51.188;16.374;2022-10-17T01:46:06;29.75;;;26.23;;
37303;SDS011;23188;51.188;16.374;2022-10-17T01:50:14;29.05;;;25.27;;
37303;SDS011;23188;51.188;16.374;2022-10-17T01:58:49;35.28;;;26.70;;
37303;SDS011;23188;51.188;16.374;2022-10-17T02:03:00;38.40;;;30.10;;
37303;SDS011;23188;51.188;16.374;2022-10-17T02:07:06;38.13;;;30.15;;
37303;SDS011;23188;51.188;16.374;2022-10-17T02:11:16;33.08;;;25.12;;
37303;SDS011;23188;51.188;16.374;2022-10-17T02:24:33;31.82;;;27.25;;
37303;SDS011;23188;51.188;16.374;2022-10-17T02:29:05;30.90;;;25.85;;
37303;SDS011;23188;51.188;16.374;2022-10-17T02:33:12;31.77;;;24.75;;
37303;SDS011;23188;51.188;16.374;2022-10-17T02:37:25;29.37;;;22.82;;
37303;SDS011;23188;51.188;16.374;2022-10-17T02:41:28;35.28;;;25.60;;
37303;SDS011;23188;51.188;16.374;2022-10-17T02:45:31;30.60;;;24.85;;
37303;SDS011;23188;51.188;16.374;2022-10-17T02:49:37;30.37;;;25.05;;
37303;SDS011;23188;51.188;16.374;2022-10-17T02:58:00;33.25;;;26.30;;
37303;SDS011;23188;51.188;16.374;2022-10-17T03:02:06;33.48;;;24.05;;
37303;SDS011;23188;51.188;16.374;2022-10-17T03:06:07;32.48;;;25.12;;
37303;SDS011;23188;51.188;16.374;2022-10-17T03:10:08;35.05;;;25.82;;
37303;SDS011;23188;51.188;16.374;2022-10-17T03:14:10;37.30;;;26.02;;
37303;SDS011;23188;51.188;16.374;2022-10-17T03:18:11;37.42;;;28.57;;
37303;SDS011;23188;51.188;16.374;2022-10-17T03:22:12;36.73;;;25.30;;
37303;SDS011;23188;51.188;16.374;2022-10-17T03:26:13;34.48;;;25.43;;
37303;SDS011;23188;51.188;16.374;2022-10-17T03:30:14;34.50;;;25.97;;
37303;SDS011;23188;51.188;16.374;2022-10-17T03:34:15;32.70;;;26.55;;
37303;SDS011;23188;51.188;16.374;2022-10-17T03:38:18;31.65;;;23.40;;
37303;SDS011;23188;51.188;16.374;2022-10-17T03:42:19;30.20;;;25.45;;
37303;SDS011;23188;51.188;16.374;2022-10-17T03:46:20;35.13;;;26.73;;
37303;SDS011;23188;51.188;16.374;2022-10-17T03:50:21;35.63;;;26.10;;
37303;SDS011;23188;51.188;16.374;2022-10-17T03:54:22;52.40;;;26.70;;
37303;SDS011;23188;51.188;16.374;2022-10-17T03:58:23;39.20;;;28.35;;
37303;SDS011;23188;51.188;16.374;2022-10-17T04:02:24;37.17;;;28.23;;
37303;SDS011;23188;51.188;16.374;2022-10-17T04:06:26;40.73;;;29.12;;
37303;SDS011;23188;51.188;16.374;2022-10-17T04:10:27;39.13;;;26.45;;
37303;SDS011;23188;51.188;16.374;2022-10-17T04:14:29;41.95;;;27.60;;
37303;SDS011;23188;51.188;16.374;2022-10-17T04:18:30;36.90;;;25.20;;
37303;SDS011;23188;51.188;16.374;2022-10-17T04:22:31;32.63;;;27.07;;
37303;SDS011;23188;51.188;16.374;2022-10-17T04:26:32;38.78;;;28.62;;
37303;SDS011;23188;51.188;16.374;2022-10-17T04:30:33;35.88;;;28.42;;
37303;SDS011;23188;51.188;16.374;2022-10-17T04:34:34;43.50;;;31.07;;
37303;SDS011;23188;51.188;16.374;2022-10-17T04:38:35;41.85;;;28.38;;
37303;SDS011;23188;51.188;16.374;2022-10-17T04:42:37;46.83;;;32.00;;
37303;SDS011;23188;51.188;16.374;2022-10-17T04:46:38;45.92;;;31.00;;
37303;SDS011;23188;51.188;16.374;2022-10-17T04:50:39;41.40;;;30.75;;
37303;SDS011;23188;51.188;16.374;2022-10-17T04:54:40;38.33;;;30.27;;
37303;SDS011;23188;51.188;16.374;2022-10-17T04:58:41;38.58;;;29.48;;
37303;SDS011;23188;51.188;16.374;2022-10-17T05:02:43;43.58;;;28.67;;
37303;SDS011;23188;51.188;16.374;2022-10-17T05:06:44;40.15;;;28.65;;
37303;SDS011;23188;51.188;16.374;2022-10-17T05:10:45;40.35;;;28.05;;
37303;SDS011;23188;51.188;16.374;2022-10-17T05:14:47;36.53;;;29.30;;
37303;SDS011;23188;51.188;16.374;2022-10-17T05:18:48;33.53;;;26.73;;
37303;SDS011;23188;51.188;16.374;2022-10-17T05:22:51;39.70;;;27.82;;
37303;SDS011;23188;51.188;16.374;2022-10-17T05:26:53;33.55;;;25.32;;
37303;SDS011;23188;51.188;16.374;2022-10-17T05:30:54;43.52;;;25.72;;
37303;SDS011;23188;51.188;16.374;2022-10-17T05:34:55;39.18;;;26.95;;
37303;SDS011;23188;51.188;16.374;2022-10-17T05:38:56;39.63;;;25.92;;
37303;SDS011;23188;51.188;16.374;2022-10-17T05:42:58;34.40;;;27.85;;
37303;SDS011;23188;51.188;16.374;2022-10-17T05:46:59;54.10;;;28.77;;
37303;SDS011;23188;51.188;16.374;2022-10-17T05:51:02;34.50;;;25.40;;
37303;SDS011;23188;51.188;16.374;2022-10-17T05:59:08;59.70;;;53.78;;
37303;SDS011;23188;51.188;16.374;2022-10-17T06:03:10;42.08;;;34.45;;
37303;SDS011;23188;51.188;16.374;2022-10-17T06:07:12;315.20;;;201.58;;
37303;SDS011;23188;51.188;16.374;2022-10-17T06:11:13;111.37;;;80.10;;
37303;SDS011;23188;51.188;16.374;2022-10-17T06:15:14;78.87;;;70.60;;
37303;SDS011;23188;51.188;16.374;2022-10-17T06:19:15;45.10;;;39.53;;
37303;SDS011;23188;51.188;16.374;2022-10-17T06:23:17;37.67;;;27.48;;
37303;SDS011;23188;51.188;16.374;2022-10-17T06:27:19;34.25;;;29.45;;
37303;SDS011;23188;51.188;16.374;2022-10-17T06:31:20;39.63;;;27.50;;
37303;SDS011;23188;51.188;16.374;2022-10-17T06:35:21;29.35;;;24.92;;
37303;SDS011;23188;51.188;16.374;2022-10-17T06:39:23;35.13;;;26.75;;
37303;SDS011;23188;51.188;16.374;2022-10-17T06:43:26;32.55;;;23.62;;
37303;SDS011;23188;51.188;16.374;2022-10-17T06:47:27;38.38;;;26.93;;
37303;SDS011;23188;51.188;16.374;2022-10-17T06:51:28;36.58;;;24.72;;
37303;SDS011;23188;51.188;16.374;2022-10-17T06:55:31;27.35;;;22.93;;
37303;SDS011;23188;51.188;16.374;2022-10-17T06:59:32;33.18;;;25.37;;
37303;SDS011;23188;51.188;16.374;2022-10-17T07:03:33;30.17;;;23.42;;
37303;SDS011;23188;51.188;16.374;2022-10-17T07:07:35;36.38;;;28.02;;
37303;SDS011;23188;51.188;16.374;2022-10-17T07:11:36;26.62;;;22.93;;
37303;SDS011;23188;51.188;16.374;2022-10-17T07:15:37;27.82;;;20.52;;
37303;SDS011;23188;51.188;16.374;2022-10-17T07:19:38;29.63;;;22.27;;
37303;SDS011;23188;51.188;16.374;2022-10-17T07:23:39;28.00;;;22.13;;
37303;SDS011;23188;51.188;16.374;2022-10-17T07:27:40;30.30;;;26.23;;
37303;SDS011;23188;51.188;16.374;2022-10-17T07:31:42;27.67;;;20.17;;
37303;SDS011;23188;51.188;16.374;2022-10-17T07:35:45;33.55;;;21.25;;
37303;SDS011;23188;51.188;16.374;2022-10-17T07:39:46;32.35;;;21.48;;
37303;SDS011;23188;51.188;16.374;2022-10-17T07:43:47;32.80;;;22.35;;
37303;SDS011;23188;51.188;16.374;2022-10-17T07:47:49;29.42;;;23.38;;
37303;SDS011;23188;51.188;16.374;2022-10-17T07:51:50;31.07;;;21.77;;
37303;SDS011;23188;51.188;16.374;2022-10-17T07:55:51;25.68;;;20.50;;
37303;SDS011;23188;51.188;16.374;2022-10-17T07:59:52;25.20;;;18.27;;
37303;SDS011;23188;51.188;16.374;2022-10-17T08:03:53;23.32;;;17.42;;
37303;SDS011;23188;51.188;16.374;2022-10-17T08:07:54;23.32;;;18.77;;
37303;SDS011;23188;51.188;16.374;2022-10-17T08:11:56;26.17;;;19.35;;
37303;SDS011;23188;51.188;16.374;2022-10-17T08:16:00;23.52;;;18.77;;
37303;SDS011;23188;51.188;16.374;2022-10-17T08:20:04;30.43;;;19.10;;
37303;SDS011;23188;51.188;16.374;2022-10-17T08:24:06;19.82;;;17.40;;
37303;SDS011;23188;51.188;16.374;2022-10-17T08:28:08;21.97;;;15.28;;
37303;SDS011;23188;51.188;16.374;2022-10-17T08:32:09;17.02;;;14.80;;
37303;SDS011;23188;51.188;16.374;2022-10-17T08:36:11;21.00;;;15.38;;
37303;SDS011;23188;51.188;16.374;2022-10-17T08:40:20;19.07;;;14.98;;
37303;SDS011;23188;51.188;16.374;2022-10-17T08:48:56;24.10;;;15.88;;
37303;SDS011;23188;51.188;16.374;2022-10-17T08:53:03;16.27;;;13.65;;
37303;SDS011;23188;51.188;16.374;2022-10-17T08:57:15;21.25;;;13.98;;
37303;SDS011;23188;51.188;16.374;2022-10-17T09:01:38;16.35;;;13.65;;
37303;SDS011;23188;51.188;16.374;2022-10-17T09:06:04;19.17;;;13.10;;
37303;SDS011;23188;51.188;16.374;2022-10-17T09:19:27;18.25;;;15.15;;
37303;SDS011;23188;51.188;16.374;2022-10-17T09:23:45;16.57;;;14.05;;
37303;SDS011;23188;51.188;16.374;2022-10-17T09:28:03;14.03;;;12.45;;
37303;SDS011;23188;51.188;16.374;2022-10-17T09:32:13;21.42;;;15.00;;
37303;SDS011;23188;51.188;16.374;2022-10-17T09:40:33;16.10;;;13.97;;
37303;SDS011;23188;51.188;16.374;2022-10-17T09:44:38;14.85;;;13.00;;
37303;SDS011;23188;51.188;16.374;2022-10-17T09:48:52;24.02;;;15.80;;
37303;SDS011;23188;51.188;16.374;2022-10-17T09:53:01;28.67;;;16.40;;
37303;SDS011;23188;51.188;16.374;2022-10-17T09:57:12;17.20;;;14.38;;
37303;SDS011;23188;51.188;16.374;2022-10-17T10:01:22;12.80;;;11.50;;
37303;SDS011;23188;51.188;16.374;2022-10-17T10:05:28;18.10;;;12.33;;
37303;SDS011;23188;51.188;16.374;2022-10-17T10:09:30;18.80;;;13.28;;
37303;SDS011;23188;51.188;16.374;2022-10-17T10:13:33;20.50;;;14.03;;
37303;SDS011;23188;51.188;16.374;2022-10-17T10:17:40;17.82;;;13.58;;
37303;SDS011;23188;51.188;16.374;2022-10-17T10:21:53;31.50;;;13.98;;
37303;SDS011;23188;51.188;16.374;2022-10-17T10:25:58;22.75;;;14.03;;
37303;SDS011;23188;51.188;16.374;2022-10-17T10:30:15;17.50;;;13.45;;
37303;SDS011;23188;51.188;16.374;2022-10-17T10:34:23;21.80;;;15.32;;
37303;SDS011;23188;51.188;16.374;2022-10-17T10:38:30;17.85;;;12.95;;
37303;SDS011;23188;51.188;16.374;2022-10-17T10:42:33;26.02;;;14.38;;
37303;SDS011;23188;51.188;16.374;2022-10-17T10:46:37;17.73;;;13.90;;
37303;SDS011;23188;51.188;16.374;2022-10-17T10:50:39;13.95;;;12.35;;
37303;SDS011;23188;51.188;16.374;2022-10-17T10:54:59;17.20;;;11.75;;
37303;SDS011;23188;51.188;16.374;2022-10-17T11:03:17;17.32;;;13.70;;
37303;SDS011;23188;51.188;16.374;2022-10-17T11:07:20;15.35;;;12.47;;
37303;SDS011;23188;51.188;16.374;2022-10-17T11:11:33;16.87;;;12.30;;
37303;SDS011;23188;51.188;16.374;2022-10-17T11:15:41;13.98;;;11.97;;
37303;SDS011;23188;51.188;16.374;2022-10-17T11:19:49;17.25;;;12.30;;
37303;SDS011;23188;51.188;16.374;2022-10-17T11:24:23;11.85;;;10.63;;
37303;SDS011;23188;51.188;16.374;2022-10-17T11:32:42;18.10;;;11.48;;
37303;SDS011;23188;51.188;16.374;2022-10-17T11:36:49;14.63;;;11.55;;
37303;SDS011;23188;51.188;16.374;2022-10-17T11:40:55;19.55;;;13.25;;
37303;SDS011;23188;51.188;16.374;2022-10-17T11:44:59;15.20;;;11.83;;
37303;SDS011;23188;51.188;16.374;2022-10-17T11:49:12;14.75;;;12.20;;
37303;SDS011;23188;51.188;16.374;2022-10-17T11:53:19;16.62;;;11.73;;
37303;SDS011;23188;51.188;16.374;2022-10-17T12:01:47;17.85;;;12.37;;
37303;SDS011;23188;51.188;16.374;2022-10-17T12:14:33;14.07;;;10.78;;
37303;SDS011;23188;51.188;16.374;2022-10-17T12:18:43;15.68;;;11.80;;
37303;SDS011;23188;51.188;16.374;2022-10-17T12:22:47;13.65;;;10.53;;
37303;SDS011;23188;51.188;16.374;2022-10-17T12:26:53;14.45;;;11.35;;
37303;SDS011;23188;51.188;16.374;2022-10-17T12:30:58;13.60;;;11.25;;
37303;SDS011;23188;51.188;16.374;2022-10-17T12:35:13;25.17;;;13.25;;
37303;SDS011;23188;51.188;16.374;2022-10-17T12:47:36;13.98;;;10.80;;
37303;SDS011;23188;51.188;16.374;2022-10-17T12:56:19;12.20;;;8.83;;
37303;SDS011;23188;51.188;16.374;2022-10-17T13:04:56;11.18;;;9.25;;
37303;SDS011;23188;51.188;16.374;2022-10-17T13:09:16;12.70;;;9.55;;
37303;SDS011;23188;51.188;16.374;2022-10-17T13:17:54;12.68;;;10.10;;
37303;SDS011;23188;51.188;16.374;2022-10-17T13:21:59;11.48;;;9.95;;
37303;SDS011;23188;51.188;16.374;2022-10-17T13:30:23;12.70;;;8.80;;
37303;SDS011;23188;51.188;16.374;2022-10-17T13:34:27;12.75;;;8.58;;
37303;SDS011;23188;51.188;16.374;2022-10-17T13:38:29;15.48;;;10.13;;
37303;SDS011;23188;51.188;16.374;2022-10-17T13:42:36;10.87;;;8.47;;
37303;SDS011;23188;51.188;16.374;2022-10-17T13:46:39;19.52;;;10.75;;
37303;SDS011;23188;51.188;16.374;2022-10-17T13:50:41;8.60;;;7.70;;
37303;SDS011;23188;51.188;16.374;2022-10-17T13:54:44;10.82;;;8.85;;
37303;SDS011;23188;51.188;16.374;2022-10-17T13:58:49;11.35;;;8.45;;
37303;SDS011;23188;51.188;16.374;2022-10-17T14:02:55;12.23;;;9.28;;
37303;SDS011;23188;51.188;16.374;2022-10-17T14:06:57;18.23;;;10.63;;
37303;SDS011;23188;51.188;16.374;2022-10-17T14:10:58;16.07;;;9.73;;
37303;SDS011;23188;51.188;16.374;2022-10-17T14:15:01;15.75;;;9.08;;
37303;SDS011;23188;51.188;16.374;2022-10-17T14:19:04;12.63;;;10.20;;
37303;SDS011;23188;51.188;16.374;2022-10-17T14:27:33;14.07;;;9.23;;
37303;SDS011;23188;51.188;16.374;2022-10-17T14:31:38;16.40;;;11.00;;
37303;SDS011;23188;51.188;16.374;2022-10-17T14:35:47;13.38;;;9.73;;
37303;SDS011;23188;51.188;16.374;2022-10-17T14:39:50;14.58;;;9.48;;
37303;SDS011;23188;51.188;16.374;2022-10-17T14:43:57;11.60;;;9.68;;
37303;SDS011;23188;51.188;16.374;2022-10-17T14:48:10;12.00;;;9.35;;
37303;SDS011;23188;51.188;16.374;2022-10-17T14:56:26;12.23;;;10.20;;
37303;SDS011;23188;51.188;16.374;2022-10-17T15:00:37;13.72;;;10.13;;
37303;SDS011;23188;51.188;16.374;2022-10-17T15:04:38;18.67;;;12.05;;
37303;SDS011;23188;51.188;16.374;2022-10-17T15:08:39;12.55;;;10.13;;
37303;SDS011;23188;51.188;16.374;2022-10-17T15:12:40;13.08;;;9.85;;
37303;SDS011;23188;51.188;16.374;2022-10-17T15:16:41;15.18;;;10.05;;
37303;SDS011;23188;51.188;16.374;2022-10-17T15:20:42;12.50;;;10.00;;
37303;SDS011;23188;51.188;16.374;2022-10-17T15:24:43;12.05;;;9.18;;
37303;SDS011;23188;51.188;16.374;2022-10-17T15:28:48;20.48;;;10.32;;
37303;SDS011;23188;51.188;16.374;2022-10-17T15:32:51;12.03;;;7.95;;
37303;SDS011;23188;51.188;16.374;2022-10-17T15:36:53;9.55;;;8.55;;
37303;SDS011;23188;51.188;16.374;2022-10-17T15:40:54;11.05;;;8.65;;
37303;SDS011;23188;51.188;16.374;2022-10-17T15:44:55;15.43;;;10.63;;
37303;SDS011;23188;51.188;16.374;2022-10-17T15:49:00;13.15;;;10.20;;
37303;SDS011;23188;51.188;16.374;2022-10-17T15:53:04;13.03;;;10.88;;
37303;SDS011;23188;51.188;16.374;2022-10-17T15:57:05;12.95;;;9.30;;
37303;SDS011;23188;51.188;16.374;2022-10-17T16:01:15;14.73;;;11.35;;
37303;SDS011;23188;51.188;16.374;2022-10-17T16:05:30;16.55;;;13.32;;
37303;SDS011;23188;51.188;16.374;2022-10-17T16:09:31;13.30;;;10.72;;
37303;SDS011;23188;51.188;16.374;2022-10-17T16:13:33;14.33;;;10.55;;
37303;SDS011;23188;51.188;16.374;2022-10-17T16:17:34;14.60;;;10.05;;
37303;SDS011;23188;51.188;16.374;2022-10-17T16:21:36;9.95;;;8.78;;
37303;SDS011;23188;51.188;16.374;2022-10-17T16:25:40;12.17;;;10.97;;
37303;SDS011;23188;51.188;16.374;2022-10-17T16:29:41;23.02;;;18.42;;
37303;SDS011;23188;51.188;16.374;2022-10-17T16:33:42;19.73;;;17.32;;
37303;SDS011;23188;51.188;16.374;2022-10-17T16:37:43;23.12;;;19.65;;
37303;SDS011;23188;51.188;16.374;2022-10-17T16:41:44;17.60;;;14.25;;
37303;SDS011;23188;51.188;16.374;2022-10-17T16:45:45;17.05;;;13.28;;
37303;SDS011;23188;51.188;16.374;2022-10-17T16:49:46;15.88;;;11.65;;
37303;SDS011;23188;51.188;16.374;2022-10-17T16:53:48;16.45;;;13.43;;
37303;SDS011;23188;51.188;16.374;2022-10-17T17:01:56;15.53;;;12.65;;
37303;SDS011;23188;51.188;16.374;2022-10-17T17:05:58;18.05;;;13.93;;
37303;SDS011;23188;51.188;16.374;2022-10-17T17:09:59;21.05;;;15.08;;
37303;SDS011;23188;51.188;16.374;2022-10-17T17:14:00;19.98;;;14.75;;
37303;SDS011;23188;51.188;16.374;2022-10-17T17:18:01;17.52;;;14.30;;
37303;SDS011;23188;51.188;16.374;2022-10-17T17:22:03;22.37;;;14.03;;
37303;SDS011;23188;51.188;16.374;2022-10-17T17:26:05;19.57;;;12.98;;
37303;SDS011;23188;51.188;16.374;2022-10-17T17:30:16;14.53;;;10.70;;
37303;SDS011;23188;51.188;16.374;2022-10-17T17:34:17;17.90;;;12.37;;
37303;SDS011;23188;51.188;16.374;2022-10-17T17:38:18;15.50;;;10.95;;
37303;SDS011;23188;51.188;16.374;2022-10-17T17:42:19;17.77;;;13.18;;
37303;SDS011;23188;51.188;16.374;2022-10-17T17:46:21;26.57;;;13.53;;
37303;SDS011;23188;51.188;16.374;2022-10-17T17:50:24;14.60;;;10.95;;
37303;SDS011;23188;51.188;16.374;2022-10-17T17:54:25;15.58;;;12.88;;
37303;SDS011;23188;51.188;16.374;2022-10-17T17:58:26;16.10;;;12.00;;
37303;SDS011;23188;51.188;16.374;2022-10-17T18:02:27;12.98;;;10.23;;
37303;SDS011;23188;51.188;16.374;2022-10-17T18:06:28;13.98;;;11.10;;
37303;SDS011;23188;51.188;16.374;2022-10-17T18:10:29;13.43;;;11.50;;
37303;SDS011;23188;51.188;16.374;2022-10-17T18:14:30;17.62;;;11.75;;
37303;SDS011;23188;51.188;16.374;2022-10-17T18:18:34;15.72;;;12.45;;
37303;SDS011;23188;51.188;16.374;2022-10-17T18:22:35;12.95;;;11.50;;
37303;SDS011;23188;51.188;16.374;2022-10-17T18:26:37;25.97;;;12.20;;
37303;SDS011;23188;51.188;16.374;2022-10-17T18:30:38;15.80;;;11.95;;
37303;SDS011;23188;51.188;16.374;2022-10-17T18:34:39;17.65;;;12.15;;
37303;SDS011;23188;51.188;16.374;2022-10-17T18:38:41;16.65;;;11.80;;
37303;SDS011;23188;51.188;16.374;2022-10-17T18:42:42;14.07;;;10.82;;
37303;SDS011;23188;51.188;16.374;2022-10-17T18:46:44;20.97;;;12.28;;
37303;SDS011;23188;51.188;16.374;2022-10-17T18:50:46;18.30;;;11.30;;
37303;SDS011;23188;51.188;16.374;2022-10-17T18:54:49;20.97;;;12.65;;
37303;SDS011;23188;51.188;16.374;2022-10-17T18:58:50;18.15;;;11.40;;
37303;SDS011;23188;51.188;16.374;2022-10-17T19:02:52;12.82;;;10.95;;
37303;SDS011;23188;51.188;16.374;2022-10-17T19:06:53;13.78;;;10.72;;
37303;SDS011;23188;51.188;16.374;2022-10-17T19:10:54;15.72;;;12.18;;
37303;SDS011;23188;51.188;16.374;2022-10-17T19:14:55;13.38;;;11.50;;
37303;SDS011;23188;51.188;16.374;2022-10-17T19:18:58;17.67;;;11.05;;
37303;SDS011;23188;51.188;16.374;2022-10-17T19:23:02;14.07;;;12.58;;
37303;SDS011;23188;51.188;16.374;2022-10-17T19:27:03;17.05;;;12.23;;
37303;SDS011;23188;51.188;16.374;2022-10-17T19:31:06;14.73;;;11.00;;
37303;SDS011;23188;51.188;16.374;2022-10-17T19:35:08;16.62;;;12.07;;
37303;SDS011;23188;51.188;16.374;2022-10-17T19:39:12;12.88;;;10.60;;
37303;SDS011;23188;51.188;16.374;2022-10-17T19:43:16;17.07;;;11.45;;
37303;SDS011;23188;51.188;16.374;2022-10-17T19:47:18;15.15;;;11.88;;
37303;SDS011;23188;51.188;16.374;2022-10-17T19:51:19;17.57;;;12.47;;
37303;SDS011;23188;51.188;16.374;2022-10-17T19:55:25;18.82;;;12.88;;
37303;SDS011;23188;51.188;16.374;2022-10-17T19:59:26;21.37;;;11.90;;
37303;SDS011;23188;51.188;16.374;2022-10-17T20:03:27;17.60;;;11.95;;
37303;SDS011;23188;51.188;16.374;2022-10-17T20:07:28;15.15;;;11.68;;
37303;SDS011;23188;51.188;16.374;2022-10-17T20:11:30;15.90;;;12.30;;
37303;SDS011;23188;51.188;16.374;2022-10-17T20:15:31;19.00;;;11.73;;
37303;SDS011;23188;51.188;16.374;2022-10-17T20:19:33;14.15;;;11.03;;
37303;SDS011;23188;51.188;16.374;2022-10-17T20:23:34;16.20;;;12.68;;
37303;SDS011;23188;51.188;16.374;2022-10-17T20:27:35;14.93;;;11.95;;
37303;SDS011;23188;51.188;16.374;2022-10-17T20:31:37;15.60;;;11.83;;
37303;SDS011;23188;51.188;16.374;2022-10-17T20:35:41;15.75;;;11.88;;
37303;SDS011;23188;51.188;16.374;2022-10-17T20:39:42;14.55;;;12.07;;
37303;SDS011;23188;51.188;16.374;2022-10-17T20:43:43;14.75;;;11.70;;
37303;SDS011;23188;51.188;16.374;2022-10-17T20:47:48;16.70;;;13.22;;
37303;SDS011;23188;51.188;16.374;2022-10-17T20:51:53;15.78;;;11.35;;
37303;SDS011;23188;51.188;16.374;2022-10-17T20:56:05;18.27;;;12.68;;
37303;SDS011;23188;51.188;16.374;2022-10-17T21:00:08;14.47;;;11.50;;
37303;SDS011;23188;51.188;16.374;2022-10-17T21:04:10;15.53;;;10.95;;
37303;SDS011;23188;51.188;16.374;2022-10-17T21:08:12;14.15;;;11.38;;
37303;SDS011;23188;51.188;16.374;2022-10-17T21:12:13;13.20;;;10.82;;
37303;SDS011;23188;51.188;16.374;2022-10-17T21:16:16;16.52;;;11.75;;
37303;SDS011;23188;51.188;16.374;2022-10-17T21:20:18;13.32;;;9.68;;
37303;SDS011;23188;51.188;16.374;2022-10-17T21:24:19;16.95;;;10.55;;
37303;SDS011;23188;51.188;16.374;2022-10-17T21:28:20;16.35;;;11.68;;
37303;SDS011;23188;51.188;16.374;2022-10-17T21:32:22;17.75;;;11.12;;
37303;SDS011;23188;51.188;16.374;2022-10-17T21:36:23;12.50;;;10.00;;
37303;SDS011;23188;51.188;16.374;2022-10-17T21:40:26;16.25;;;10.88;;
37303;SDS011;23188;51.188;16.374;2022-10-17T21:44:27;12.13;;;9.03;;
37303;SDS011;23188;51.188;16.374;2022-10-17T21:48:28;13.72;;;8.58;;
37303;SDS011;23188;51.188;16.374;2022-10-17T21:52:30;13.18;;;9.23;;
37303;SDS011;23188;51.188;16.374;2022-10-17T21:56:32;9.30;;;8.20;;
37303;SDS011;23188;51.188;16.374;2022-10-17T22:00:34;11.03;;;9.85;;
37303;SDS011;23188;51.188;16.374;2022-10-17T22:04:35;10.13;;;8.35;;
37303;SDS011;23188;51.188;16.374;2022-10-17T22:08:37;11.18;;;9.65;;
37303;SDS011;23188;51.188;16.374;2022-10-17T22:12:38;12.55;;;8.30;;
37303;SDS011;23188;51.188;16.374;2022-10-17T22:16:39;11.28;;;8.28;;
37303;SDS011;23188;51.188;16.374;2022-10-17T22:20:41;10.43;;;9.30;;
37303;SDS011;23188;51.188;16.374;2022-10-17T22:24:42;14.75;;;9.48;;
37303;SDS011;23188;51.188;16.374;2022-10-17T22:28:43;16.10;;;9.00;;
37303;SDS011;23188;51.188;16.374;2022-10-17T22:32:44;11.83;;;8.60;;
37303;SDS011;23188;51.188;16.374;2022-10-17T22:36:46;11.65;;;9.28;;
37303;SDS011;23188;51.188;16.374;2022-10-17T22:40:48;10.00;;;8.75;;
37303;SDS011;23188;51.188;16.374;2022-10-17T22:44:49;13.03;;;10.08;;
37303;SDS011;23188;51.188;16.374;2022-10-17T22:48:50;11.08;;;8.73;;
37303;SDS011;23188;51.188;16.374;2022-10-17T22:52:51;17.85;;;8.98;;
37303;SDS011;23188;51.188;16.374;2022-10-17T22:56:53;8.73;;;7.85;;
37303;SDS011;23188;51.188;16.374;2022-10-17T23:00:54;9.40;;;6.92;;
37303;SDS011;23188;51.188;16.374;2022-10-17T23:04:55;11.35;;;7.97;;
37303;SDS011;23188;51.188;16.374;2022-10-17T23:08:56;13.65;;;7.05;;
37303;SDS011;23188;51.188;16.374;2022-10-17T23:12:58;10.18;;;8.63;;
37303;SDS011;23188;51.188;16.374;2022-10-17T23:16:59;11.08;;;8.13;;
37303;SDS011;23188;51.188;16.374;2022-10-17T23:21:00;12.33;;;7.70;;
37303;SDS011;23188;51.188;16.374;2022-10-17T23:25:01;11.30;;;6.78;;
37303;SDS011;23188;51.188;16.374;2022-10-17T23:29:03;13.08;;;9.30;;
37303;SDS011;23188;51.188;16.374;2022-10-17T23:33:04;12.35;;;9.65;;
37303;SDS011;23188;51.188;16.374;2022-10-17T23:37:06;7.97;;;6.65;;
37303;SDS011;23188;51.188;16.374;2022-10-17T23:41:10;13.20;;;8.50;;
37303;SDS011;23188;51.188;16.374;2022-10-17T23:45:11;12.55;;;8.35;;
37303;SDS011;23188;51.188;16.374;2022-10-17T23:49:13;10.43;;;7.95;;
37303;SDS011;23188;51.188;16.374;2022-10-17T23:53:14;8.63;;;7.62;;
37303;SDS011;23188;51.188;16.374;2022-10-17T23:57:15;10.23;;;7.60;;
